createdAt,value
2023-05-21T00:02:23.724Z,9.67
2023-05-21T00:04:51.436Z,9.66
2023-05-21T00:07:18.704Z,9.66
2023-05-21T00:09:45.283Z,9.65
2023-05-21T00:12:11.853Z,9.65
2023-05-21T00:14:38.371Z,9.64
2023-05-21T00:17:04.985Z,9.62
2023-05-21T00:19:33.720Z,9.60
2023-05-21T00:22:03.730Z,9.57
2023-05-21T00:24:30.303Z,9.58
2023-05-21T00:26:56.809Z,9.55
2023-05-21T00:29:23.870Z,9.55
2023-05-21T00:31:51.078Z,9.54
2023-05-21T00:34:17.723Z,9.52
2023-05-21T00:36:45.541Z,9.50
2023-05-21T00:39:13.323Z,9.47
2023-05-21T00:41:40.386Z,9.46
2023-05-21T00:44:07.129Z,9.43
2023-05-21T00:46:33.743Z,9.38
2023-05-21T00:49:00.348Z,9.33
2023-05-21T00:51:30.207Z,9.32
2023-05-21T00:53:57.129Z,9.31
2023-05-21T00:56:24.197Z,9.32
2023-05-21T00:58:51.966Z,9.30
2023-05-21T01:01:19.390Z,9.30
2023-05-21T01:03:46.018Z,9.26
2023-05-21T01:06:14.092Z,9.25
2023-05-21T01:08:40.860Z,9.23
2023-05-21T01:11:07.710Z,9.22
2023-05-21T01:13:36.709Z,9.20
2023-05-21T01:16:03.385Z,9.20
2023-05-21T01:18:30.001Z,9.19
2023-05-21T01:20:56.559Z,9.18
2023-05-21T01:23:23.073Z,9.15
2023-05-21T01:25:49.560Z,9.15
2023-05-21T01:28:16.053Z,9.15
2023-05-21T01:30:42.621Z,9.13
2023-05-21T01:33:21.835Z,9.12
2023-05-21T01:35:51.218Z,9.11
2023-05-21T01:38:22.710Z,9.10
2023-05-21T01:40:58.723Z,9.07
2023-05-21T01:43:25.378Z,9.07
2023-05-21T01:45:53.505Z,9.06
2023-05-21T01:48:20.147Z,9.05
2023-05-21T01:50:46.708Z,9.04
2023-05-21T01:53:13.397Z,9.05
2023-05-21T01:55:41.953Z,9.04
2023-05-21T01:58:08.686Z,9.03
2023-05-21T02:00:35.265Z,9.03
2023-05-21T02:03:01.892Z,9.04
2023-05-21T02:05:28.525Z,9.02
2023-05-21T02:07:55.143Z,9.00
2023-05-21T02:10:21.669Z,8.98
2023-05-21T02:12:48.210Z,8.95
2023-05-21T02:15:14.709Z,8.90
2023-05-21T02:17:42.582Z,8.87
2023-05-21T02:20:12.327Z,8.85
2023-05-21T02:22:45.523Z,8.83
2023-05-21T02:25:12.675Z,8.80
2023-05-21T02:27:39.651Z,8.77
2023-05-21T02:30:07.859Z,8.74
2023-05-21T02:32:35.002Z,8.72
2023-05-21T02:35:01.978Z,8.69
2023-05-21T02:37:28.483Z,8.66
2023-05-21T02:39:55.178Z,8.65
2023-05-21T02:42:24.507Z,8.62
2023-05-21T02:44:51.377Z,8.58
2023-05-21T02:47:18.971Z,8.57
2023-05-21T02:49:45.907Z,8.55
2023-05-21T02:52:12.718Z,8.51
2023-05-21T02:54:39.490Z,8.50
2023-05-21T02:57:06.114Z,8.48
2023-05-21T02:59:32.641Z,8.46
2023-05-21T03:01:59.275Z,8.44
2023-05-21T03:04:28.269Z,8.42
2023-05-21T03:06:55.321Z,8.41
2023-05-21T03:09:22.331Z,8.39
2023-05-21T03:11:49.615Z,8.33
2023-05-21T03:14:18.957Z,8.27
2023-05-21T03:16:45.503Z,8.22
2023-05-21T03:19:12.771Z,8.17
2023-05-21T03:21:39.616Z,8.17
2023-05-21T03:24:06.515Z,8.14
2023-05-21T03:26:33.204Z,8.11
2023-05-21T03:29:00.053Z,8.12
2023-05-21T03:31:26.828Z,8.13
2023-05-21T03:33:53.879Z,8.09
2023-05-21T03:36:20.798Z,8.01
2023-05-21T03:38:47.361Z,7.93
2023-05-21T03:41:13.910Z,7.89
2023-05-21T03:43:40.599Z,7.87
2023-05-21T03:46:07.189Z,7.85
2023-05-21T03:48:33.719Z,7.83
2023-05-21T03:51:00.221Z,7.81
2023-05-21T03:53:26.815Z,7.82
2023-05-21T03:55:55.266Z,7.85
2023-05-21T03:58:22.525Z,7.87
2023-05-21T04:00:49.063Z,7.87
2023-05-21T04:03:15.993Z,7.91
2023-05-21T04:05:42.842Z,7.92
2023-05-21T04:08:09.646Z,7.96
2023-05-21T04:10:36.181Z,8.00
2023-05-21T04:13:02.751Z,8.02
2023-05-21T04:15:29.323Z,8.05
2023-05-21T04:17:55.890Z,8.11
2023-05-21T04:20:22.450Z,8.13
2023-05-21T04:22:49.041Z,8.18
2023-05-21T04:25:15.714Z,8.21
2023-05-21T04:27:43.512Z,8.25
2023-05-21T04:30:11.164Z,8.31
2023-05-21T04:32:38.568Z,8.37
2023-05-21T04:35:05.587Z,8.40
2023-05-21T04:37:34.980Z,8.43
2023-05-21T04:40:04.326Z,8.48
2023-05-21T04:42:32.852Z,8.53
2023-05-21T04:44:59.482Z,8.60
2023-05-21T04:47:26.204Z,8.68
2023-05-21T04:49:53.451Z,8.75
2023-05-21T04:52:19.982Z,8.83
2023-05-21T04:54:47.793Z,8.90
2023-05-21T04:57:14.301Z,9.00
2023-05-21T04:59:41.428Z,9.10
2023-05-21T05:02:08.005Z,9.20
2023-05-21T05:04:34.540Z,9.30
2023-05-21T05:07:01.185Z,9.41
2023-05-21T05:09:28.062Z,9.52
2023-05-21T05:11:54.594Z,9.61
2023-05-21T05:14:21.094Z,9.72
2023-05-21T05:16:50.430Z,9.85
2023-05-21T05:19:17.128Z,9.96
2023-05-21T05:21:43.715Z,10.10
2023-05-21T05:24:10.240Z,10.23
2023-05-21T05:26:36.763Z,10.36
2023-05-21T05:29:03.337Z,10.50
2023-05-21T05:31:29.916Z,10.64
2023-05-21T05:33:56.599Z,10.77
2023-05-21T05:36:23.092Z,10.89
2023-05-21T05:38:49.616Z,11.03
2023-05-21T05:41:16.124Z,11.19
2023-05-21T05:43:42.617Z,11.34
2023-05-21T05:46:09.439Z,11.49
2023-05-21T05:48:36.020Z,11.65
2023-05-21T05:51:02.623Z,11.78
2023-05-21T05:53:29.209Z,11.91
2023-05-21T05:55:55.724Z,12.04
2023-05-21T05:58:22.215Z,12.17
2023-05-21T06:00:48.708Z,12.31
2023-05-21T06:03:15.349Z,12.43
2023-05-21T06:05:42.055Z,12.54
2023-05-21T06:08:08.595Z,12.66
2023-05-21T06:10:35.126Z,12.75
2023-05-21T06:13:01.682Z,12.82
2023-05-21T06:15:28.206Z,12.90
2023-05-21T06:17:54.753Z,12.85
2023-05-21T06:20:21.276Z,12.83
2023-05-21T06:22:47.790Z,12.84
2023-05-21T06:25:14.533Z,12.92
2023-05-21T06:27:41.078Z,13.01
2023-05-21T06:30:08.523Z,13.06
2023-05-21T06:32:35.124Z,13.11
2023-05-21T06:35:01.741Z,13.24
2023-05-21T06:37:28.259Z,13.31
2023-05-21T06:39:54.761Z,13.33
2023-05-21T06:42:21.394Z,13.38
2023-05-21T06:44:47.886Z,13.40
2023-05-21T06:47:14.432Z,13.47
2023-05-21T06:49:41.033Z,13.51
2023-05-21T06:52:07.900Z,13.58
2023-05-21T06:54:34.769Z,13.69
2023-05-21T06:57:01.650Z,13.85
2023-05-21T06:59:28.193Z,13.96
2023-05-21T07:01:54.754Z,14.08
2023-05-21T07:04:21.287Z,14.18
2023-05-21T07:06:48.454Z,14.27
2023-05-21T07:09:15.540Z,14.37
2023-05-21T07:11:42.109Z,14.45
2023-05-21T07:14:08.794Z,14.54
2023-05-21T07:16:35.411Z,14.69
2023-05-21T07:19:01.956Z,14.79
2023-05-21T07:21:28.487Z,14.94
2023-05-21T07:23:54.974Z,15.05
2023-05-21T07:26:21.492Z,15.16
2023-05-21T07:28:48.088Z,15.26
2023-05-21T07:31:14.726Z,15.42
2023-05-21T07:33:41.354Z,15.56
2023-05-21T07:36:07.924Z,15.63
2023-05-21T07:38:34.650Z,15.73
2023-05-21T07:41:01.175Z,15.81
2023-05-21T07:43:27.661Z,15.94
2023-05-21T07:45:54.197Z,15.98
2023-05-21T07:48:20.768Z,15.97
2023-05-21T07:50:49.628Z,16.10
2023-05-21T07:53:16.229Z,16.27
2023-05-21T07:55:47.701Z,16.46
2023-05-21T07:58:20.152Z,16.57
2023-05-21T08:00:47.484Z,16.57
2023-05-21T08:03:16.388Z,16.73
2023-05-21T08:05:48.310Z,16.88
2023-05-21T08:08:16.312Z,17.05
2023-05-21T08:10:42.866Z,17.16
2023-05-21T08:13:09.861Z,17.31
2023-05-21T08:15:36.633Z,17.35
2023-05-21T08:18:03.652Z,17.40
2023-05-21T08:20:32.065Z,17.49
2023-05-21T08:22:58.572Z,17.58
2023-05-21T08:25:25.081Z,17.62
2023-05-21T08:27:52.535Z,17.70
2023-05-21T08:30:19.164Z,17.80
2023-05-21T08:32:45.796Z,17.86
2023-05-21T08:35:12.325Z,17.92
2023-05-21T08:37:38.870Z,17.94
2023-05-21T08:40:06.404Z,17.99
2023-05-21T08:42:38.607Z,17.98
2023-05-21T08:45:06.291Z,18.03
2023-05-21T08:47:36.007Z,18.11
2023-05-21T08:50:05.707Z,18.18
2023-05-21T08:52:32.396Z,18.23
2023-05-21T08:54:59.033Z,18.34
2023-05-21T08:57:25.635Z,18.51
2023-05-21T08:59:52.183Z,18.65
2023-05-21T09:02:18.737Z,18.77
2023-05-21T09:04:49.383Z,18.93
2023-05-21T09:07:16.901Z,19.05
2023-05-21T09:10:05.156Z,19.14
2023-05-21T09:12:31.705Z,19.31
2023-05-21T09:14:58.834Z,19.43
2023-05-21T09:17:25.501Z,19.46
2023-05-21T09:20:17.419Z,19.55
2023-05-21T09:22:44.523Z,19.57
2023-05-21T09:25:12.038Z,19.68
2023-05-21T09:27:38.787Z,19.81
2023-05-21T09:30:09.585Z,19.97
2023-05-21T09:32:36.144Z,20.09
2023-05-21T09:35:09.625Z,20.22
2023-05-21T09:37:47.492Z,20.24
2023-05-21T09:40:17.894Z,20.31
2023-05-21T09:42:52.028Z,20.55
2023-05-21T09:45:18.565Z,20.76
2023-05-21T09:47:45.831Z,21.03
2023-05-21T09:50:22.553Z,21.28
2023-05-21T09:52:50.382Z,21.55
2023-05-21T09:55:17.070Z,21.78
2023-05-21T09:57:44.566Z,22.07
2023-05-21T10:00:22.160Z,22.42
2023-05-21T10:02:49.701Z,22.57
2023-05-21T10:05:16.940Z,22.80
2023-05-21T10:07:49.588Z,23.12
2023-05-21T10:10:16.086Z,23.39
2023-05-21T10:12:44.919Z,23.51
2023-05-21T10:15:16.236Z,23.79
2023-05-21T10:17:43.550Z,24.09
2023-05-21T10:20:13.098Z,24.42
2023-05-21T10:22:40.421Z,24.89
2023-05-21T10:25:07.903Z,25.21
2023-05-21T10:27:37.370Z,25.45
2023-05-21T10:30:07.299Z,25.58
2023-05-21T10:32:33.983Z,25.63
2023-05-21T10:35:01.821Z,25.86
2023-05-21T10:37:28.657Z,26.06
2023-05-21T10:39:55.767Z,26.19
2023-05-21T10:43:00.148Z,26.42
2023-05-21T10:45:49.860Z,27.01
2023-05-21T10:48:23.736Z,27.30
2023-05-21T10:50:56.148Z,27.64
2023-05-21T10:53:28.603Z,28.05
2023-05-21T10:56:16.890Z,28.48
2023-05-21T10:59:22.318Z,28.77
2023-05-21T11:01:50.478Z,29.05
2023-05-21T11:04:17.746Z,29.35
2023-05-21T11:06:48.513Z,29.88
2023-05-21T11:09:15.306Z,30.30
2023-05-21T11:11:43.130Z,30.70
2023-05-21T11:14:35.040Z,31.71
2023-05-21T11:17:12.917Z,32.89
2023-05-21T11:19:43.673Z,34.11
2023-05-21T11:22:11.405Z,35.24
2023-05-21T11:24:39.438Z,36.13
2023-05-21T11:27:06.949Z,37.05
2023-05-21T11:29:44.403Z,38.04
2023-05-21T11:32:15.611Z,38.84
2023-05-21T11:34:43.600Z,39.62
2023-05-21T11:37:19.065Z,40.05
2023-05-21T11:39:45.592Z,40.63
2023-05-21T11:42:12.111Z,41.26
2023-05-21T11:44:45.419Z,42.05
2023-05-21T11:47:13.395Z,42.71
2023-05-21T11:49:41.066Z,43.53
2023-05-21T11:52:08.630Z,44.08
2023-05-21T11:54:51.897Z,44.38
2023-05-21T11:57:19.252Z,44.65
2023-05-21T11:59:46.342Z,44.74
2023-05-21T12:02:19.204Z,44.63
2023-05-21T12:04:46.649Z,43.35
2023-05-21T12:07:15.017Z,41.83
2023-05-21T12:09:51.141Z,40.43
2023-05-21T12:12:19.337Z,39.43
2023-05-21T12:16:10.114Z,38.17
2023-05-21T12:18:36.870Z,37.41
2023-05-21T12:21:03.462Z,36.51
2023-05-21T12:23:31.495Z,35.98
2023-05-21T12:25:58.006Z,35.61
2023-05-21T12:28:27.228Z,35.52
2023-05-21T12:30:53.797Z,35.46
2023-05-21T12:33:21.185Z,35.34
2023-05-21T12:35:51.536Z,35.33
2023-05-21T12:38:18.193Z,35.45
2023-05-21T12:40:45.700Z,35.51
2023-05-21T12:43:12.412Z,35.75
2023-05-21T12:45:41.856Z,36.11
2023-05-21T12:48:08.647Z,36.65
2023-05-21T12:50:39.175Z,37.27
2023-05-21T12:53:08.792Z,38.55
2023-05-21T12:55:35.374Z,40.01
2023-05-21T12:58:10.681Z,41.52
2023-05-21T13:00:37.793Z,42.56
2023-05-21T13:03:06.224Z,43.30
2023-05-21T13:05:33.243Z,43.72
2023-05-21T13:07:59.801Z,43.36
2023-05-21T13:10:26.336Z,42.29
2023-05-21T13:12:52.878Z,41.52
2023-05-21T13:15:19.898Z,40.67
2023-05-21T13:17:48.451Z,39.73
2023-05-21T13:20:20.573Z,39.19
2023-05-21T13:22:49.984Z,38.81
2023-05-21T13:25:24.915Z,38.08
2023-05-21T13:27:52.303Z,37.08
2023-05-21T13:30:18.937Z,36.27
2023-05-21T13:32:45.898Z,35.40
2023-05-21T13:35:12.621Z,34.87
2023-05-21T13:37:39.687Z,34.75
2023-05-21T13:40:07.865Z,35.01
2023-05-21T13:42:34.751Z,35.51
2023-05-21T13:45:01.270Z,36.12
2023-05-21T13:47:27.837Z,37.63
2023-05-21T13:49:54.354Z,39.13
2023-05-21T13:52:21.579Z,41.20
2023-05-21T13:54:48.102Z,42.93
2023-05-21T13:57:15.068Z,44.64
2023-05-21T13:59:41.691Z,46.22
2023-05-21T14:02:11.287Z,47.53
2023-05-21T14:04:39.282Z,48.64
2023-05-21T14:07:06.548Z,49.59
2023-05-21T14:09:33.068Z,50.88
2023-05-21T14:11:59.571Z,51.73
2023-05-21T14:14:26.328Z,52.20
2023-05-21T14:16:53.082Z,52.37
2023-05-21T14:19:19.853Z,53.06
2023-05-21T14:21:46.416Z,53.34
2023-05-21T14:24:12.949Z,53.47
2023-05-21T14:26:42.271Z,53.13
2023-05-21T14:29:08.837Z,52.82
2023-05-21T14:31:35.698Z,52.12
2023-05-21T14:34:03.068Z,51.43
2023-05-21T14:36:29.738Z,50.90
2023-05-21T14:38:56.297Z,50.65
2023-05-21T14:41:26.794Z,50.56
2023-05-21T14:43:53.527Z,50.35
2023-05-21T14:46:20.092Z,49.82
2023-05-21T14:48:46.753Z,49.98
2023-05-21T14:51:13.796Z,50.37
2023-05-21T14:53:40.708Z,50.30
2023-05-21T14:56:07.397Z,50.59
2023-05-21T14:58:34.065Z,51.10
2023-05-21T15:01:00.761Z,51.42
2023-05-21T15:03:27.693Z,51.84
2023-05-21T15:05:54.553Z,52.31
2023-05-21T15:08:21.091Z,52.85
2023-05-21T15:10:47.591Z,53.34
2023-05-21T15:13:14.142Z,53.44
2023-05-21T15:15:40.964Z,50.76
2023-05-21T15:18:07.750Z,47.60
2023-05-21T15:20:34.310Z,45.12
2023-05-21T15:23:15.232Z,45.16
2023-05-21T15:25:43.086Z,46.19
2023-05-21T15:28:09.669Z,45.94
2023-05-21T15:30:36.235Z,43.86
2023-05-21T15:33:02.749Z,41.62
2023-05-21T15:35:29.375Z,39.79
2023-05-21T15:37:55.973Z,38.35
2023-05-21T15:40:23.941Z,37.12
2023-05-21T15:42:52.048Z,36.09
2023-05-21T15:45:18.612Z,35.27
2023-05-21T15:47:45.437Z,34.69
2023-05-21T15:50:12.381Z,34.24
2023-05-21T15:52:38.888Z,34.65
2023-05-21T15:55:05.950Z,34.29
2023-05-21T15:57:32.488Z,34.42
2023-05-21T15:59:59.417Z,33.89
2023-05-21T16:02:25.990Z,33.12
2023-05-21T16:04:52.522Z,32.29
2023-05-21T16:07:19.145Z,31.43
2023-05-21T16:09:45.676Z,30.61
2023-05-21T16:12:12.556Z,29.84
2023-05-21T16:14:39.128Z,29.14
2023-05-21T16:17:06.005Z,28.60
2023-05-21T16:19:32.655Z,28.08
2023-05-21T16:22:00.341Z,27.58
2023-05-21T16:24:26.843Z,27.06
2023-05-21T16:26:53.411Z,26.49
2023-05-21T16:29:19.903Z,25.93
2023-05-21T16:31:47.389Z,25.42
2023-05-21T16:34:13.955Z,24.97
2023-05-21T16:36:40.556Z,24.49
2023-05-21T16:39:07.093Z,24.06
2023-05-21T16:41:33.831Z,23.73
2023-05-21T16:44:00.743Z,23.50
2023-05-21T16:46:27.400Z,23.33
2023-05-21T16:48:53.942Z,23.15
2023-05-21T16:51:20.479Z,22.92
2023-05-21T16:53:46.989Z,22.74
2023-05-21T16:56:13.486Z,22.48
2023-05-21T16:58:40.002Z,22.17
2023-05-21T17:01:06.574Z,21.80
2023-05-21T17:03:33.189Z,21.31
2023-05-21T17:05:59.873Z,21.15
2023-05-21T17:08:26.416Z,20.86
2023-05-21T17:10:52.913Z,20.63
2023-05-21T17:13:22.849Z,20.54
2023-05-21T17:15:50.806Z,20.41
2023-05-21T17:18:17.397Z,20.39
2023-05-21T17:20:43.958Z,20.35
2023-05-21T17:23:11.511Z,20.31
2023-05-21T17:25:38.287Z,20.36
2023-05-21T17:28:05.233Z,20.33
2023-05-21T17:30:31.740Z,20.30
2023-05-21T17:32:58.406Z,20.25
2023-05-21T17:35:25.042Z,20.22
2023-05-21T17:37:53.229Z,20.16
2023-05-21T17:40:21.383Z,20.14
2023-05-21T17:42:48.531Z,20.14
2023-05-21T17:45:15.062Z,20.13
2023-05-21T17:47:41.609Z,20.08
2023-05-21T17:50:09.061Z,20.04
2023-05-21T17:52:35.803Z,19.93
2023-05-21T17:55:02.339Z,19.84
2023-05-21T17:57:28.870Z,19.68
2023-05-21T17:59:55.541Z,19.62
2023-05-21T18:02:24.015Z,19.54
2023-05-21T18:04:50.602Z,19.48
2023-05-21T18:07:17.375Z,19.40
2023-05-21T18:09:44.024Z,19.30
2023-05-21T18:12:10.952Z,19.20
2023-05-21T18:14:37.513Z,19.08
2023-05-21T18:17:04.225Z,19.00
2023-05-21T18:19:33.601Z,18.94
2023-05-21T18:22:00.218Z,18.84
2023-05-21T18:24:26.735Z,18.71
2023-05-21T18:26:53.470Z,18.61
2023-05-21T18:29:20.108Z,18.54
2023-05-21T18:31:46.750Z,18.43
2023-05-21T18:34:13.323Z,18.38
2023-05-21T18:36:40.093Z,18.33
2023-05-21T18:39:07.590Z,18.25
2023-05-21T18:41:34.109Z,18.18
2023-05-21T18:44:03.706Z,18.09
2023-05-21T18:46:31.641Z,18.02
2023-05-21T18:48:59.268Z,17.98
2023-05-21T18:51:25.800Z,17.81
2023-05-21T18:53:52.382Z,17.68
2023-05-21T18:56:18.911Z,17.66
2023-05-21T18:58:45.712Z,17.57
2023-05-21T19:01:13.048Z,17.55
2023-05-21T19:03:39.598Z,17.49
2023-05-21T19:06:06.184Z,17.45
2023-05-21T19:08:32.779Z,17.43
2023-05-21T19:10:59.991Z,17.37
2023-05-21T19:13:26.597Z,17.30
2023-05-21T19:15:53.164Z,17.26
2023-05-21T19:18:19.783Z,17.19
2023-05-21T19:20:46.284Z,17.09
2023-05-21T19:23:12.823Z,17.03
2023-05-21T19:25:39.450Z,16.96
2023-05-21T19:28:05.953Z,16.90
2023-05-21T19:30:34.852Z,16.87
2023-05-21T19:33:01.809Z,16.82
2023-05-21T19:35:28.610Z,16.75
2023-05-21T19:37:59.250Z,16.66
2023-05-21T19:40:26.736Z,16.55
2023-05-21T19:42:53.271Z,16.46
2023-05-21T19:45:21.424Z,16.39
2023-05-21T19:47:48.189Z,16.24
2023-05-21T19:50:14.852Z,16.18
2023-05-21T19:52:41.367Z,16.12
2023-05-21T19:55:09.939Z,16.06
2023-05-21T19:57:37.034Z,15.99
2023-05-21T20:00:04.762Z,15.98
2023-05-21T20:02:31.376Z,15.99
2023-05-21T20:04:58.969Z,15.94
2023-05-21T20:07:25.590Z,15.92
2023-05-21T20:09:52.388Z,15.85
2023-05-21T20:12:19.082Z,15.85
2023-05-21T20:14:47.410Z,15.85
2023-05-21T20:17:14.714Z,15.86
2023-05-21T20:19:41.326Z,15.89
2023-05-21T20:22:07.885Z,15.87
2023-05-21T20:24:34.445Z,15.91
2023-05-21T20:27:01.650Z,15.95
2023-05-21T20:29:28.831Z,15.90
2023-05-21T20:31:55.460Z,15.82
2023-05-21T20:34:22.109Z,15.72
2023-05-21T20:36:48.832Z,15.69
2023-05-21T20:39:15.471Z,15.63
2023-05-21T20:41:44.671Z,15.62
2023-05-21T20:44:11.993Z,15.60
2023-05-21T20:46:38.994Z,15.45
2023-05-21T20:49:05.862Z,15.36
2023-05-21T20:51:32.545Z,15.33
2023-05-21T20:53:59.060Z,15.30
2023-05-21T20:56:37.474Z,15.32
2023-05-21T20:59:10.481Z,15.29
2023-05-21T21:01:37.855Z,15.25
2023-05-21T21:04:04.957Z,15.22
2023-05-21T21:06:31.803Z,15.24
2023-05-21T21:08:58.494Z,15.21
2023-05-21T21:11:25.085Z,15.16
2023-05-21T21:13:51.884Z,15.09
2023-05-21T21:16:18.625Z,15.03
2023-05-21T21:18:46.968Z,14.93
2023-05-21T21:21:13.655Z,14.85
2023-05-21T21:23:40.222Z,14.76
2023-05-21T21:26:07.128Z,14.68
2023-05-21T21:28:33.780Z,14.58
2023-05-21T21:31:00.526Z,14.46
2023-05-21T21:33:27.152Z,14.40
2023-05-21T21:35:53.757Z,14.32
2023-05-21T21:38:20.316Z,14.28
2023-05-21T21:40:46.849Z,14.25
2023-05-21T21:43:13.401Z,14.18
2023-05-21T21:45:39.953Z,14.17
2023-05-21T21:48:06.902Z,14.11
2023-05-21T21:50:33.458Z,14.07
2023-05-21T21:53:01.090Z,14.05
2023-05-21T21:55:27.766Z,14.06
2023-05-21T21:57:54.303Z,14.09
2023-05-21T22:00:21.036Z,14.07
2023-05-21T22:02:47.701Z,14.09
2023-05-21T22:05:14.903Z,14.07
2023-05-21T22:07:42.673Z,14.05
2023-05-21T22:10:09.514Z,13.99
2023-05-21T22:12:36.083Z,13.96
2023-05-21T22:15:06.605Z,13.93
2023-05-21T22:17:33.987Z,13.86
2023-05-21T22:20:01.055Z,13.81
2023-05-21T22:22:27.652Z,13.74
2023-05-21T22:24:54.403Z,13.64
2023-05-21T22:27:20.983Z,13.52
2023-05-21T22:29:47.677Z,13.49
2023-05-21T22:32:14.178Z,13.47
2023-05-21T22:34:41.849Z,13.46
2023-05-21T22:37:08.438Z,13.41
2023-05-21T22:39:34.950Z,13.35
2023-05-21T22:42:01.490Z,13.32
2023-05-21T22:44:27.982Z,13.29
2023-05-21T22:46:56.447Z,13.25
2023-05-21T22:49:23.109Z,13.19
2023-05-21T22:51:50.969Z,13.06
2023-05-21T22:54:17.563Z,12.93
2023-05-21T22:56:44.968Z,12.86
2023-05-21T22:59:11.489Z,12.76
2023-05-21T23:01:38.386Z,12.70
2023-05-21T23:04:05.104Z,12.63
2023-05-21T23:06:31.783Z,12.59
2023-05-21T23:08:58.322Z,12.56
2023-05-21T23:11:24.831Z,12.44
2023-05-21T23:13:51.326Z,12.37
2023-05-21T23:16:17.937Z,12.30
2023-05-21T23:18:44.549Z,12.24
2023-05-21T23:21:11.182Z,12.21
2023-05-21T23:23:37.755Z,12.14
2023-05-21T23:26:04.256Z,12.10
2023-05-21T23:28:30.825Z,12.05
2023-05-21T23:30:57.349Z,12.02
2023-05-21T23:33:23.875Z,11.98
2023-05-21T23:35:50.675Z,11.91
2023-05-21T23:38:17.195Z,11.89
2023-05-21T23:40:43.687Z,11.88
2023-05-21T23:43:10.224Z,11.84
2023-05-21T23:45:37.172Z,11.80
2023-05-21T23:48:03.997Z,11.80
2023-05-21T23:50:30.558Z,11.76
2023-05-21T23:52:57.078Z,11.75
2023-05-21T23:55:23.645Z,11.73
2023-05-21T23:57:50.366Z,11.69
